sensor_id;sensor_type;location;lat;lon;timestamp;temperature;humidity
14154;DHT22;7157;53.144;7.570;2022-10-17T00:04:38;13.61;87.08
14154;DHT22;7157;53.144;7.570;2022-10-17T00:14:41;13.65;87.23
14154;DHT22;7157;53.144;7.570;2022-10-17T00:24:45;13.74;87.20
14154;DHT22;7157;53.144;7.570;2022-10-17T00:34:47;13.76;87.32
14154;DHT22;7157;53.144;7.570;2022-10-17T00:45:05;13.76;87.23
14154;DHT22;7157;53.144;7.570;2022-10-17T00:55:11;13.71;87.07
14154;DHT22;7157;53.144;7.570;2022-10-17T01:05:17;13.73;87.15
14154;DHT22;7157;53.144;7.570;2022-10-17T01:15:34;13.75;87.76
14154;DHT22;7157;53.144;7.570;2022-10-17T01:25:47;13.84;87.97
14154;DHT22;7157;53.144;7.570;2022-10-17T01:35:58;13.90;88.23
14154;DHT22;7157;53.144;7.570;2022-10-17T01:46:11;13.92;88.41
14154;DHT22;7157;53.144;7.570;2022-10-17T01:56:21;13.91;88.72
14154;DHT22;7157;53.144;7.570;2022-10-17T02:06:26;13.93;88.55
14154;DHT22;7157;53.144;7.570;2022-10-17T02:16:34;13.84;88.60
14154;DHT22;7157;53.144;7.570;2022-10-17T02:26:40;13.68;89.79
14154;DHT22;7157;53.144;7.570;2022-10-17T02:36:48;13.77;88.57
14154;DHT22;7157;53.144;7.570;2022-10-17T02:46:58;13.73;88.96
14154;DHT22;7157;53.144;7.570;2022-10-17T02:57:07;13.65;89.09
14154;DHT22;7157;53.144;7.570;2022-10-17T03:07:12;13.63;89.57
14154;DHT22;7157;53.144;7.570;2022-10-17T03:17:16;13.66;89.35
14154;DHT22;7157;53.144;7.570;2022-10-17T03:27:19;13.67;89.34
14154;DHT22;7157;53.144;7.570;2022-10-17T03:37:23;13.60;89.70
14154;DHT22;7157;53.144;7.570;2022-10-17T03:47:27;13.59;89.85
14154;DHT22;7157;53.144;7.570;2022-10-17T03:57:33;13.59;90.09
14154;DHT22;7157;53.144;7.570;2022-10-17T04:07:36;13.68;89.99
14154;DHT22;7157;53.144;7.570;2022-10-17T04:17:40;13.74;90.34
14154;DHT22;7157;53.144;7.570;2022-10-17T04:27:42;13.76;90.77
14154;DHT22;7157;53.144;7.570;2022-10-17T04:37:46;13.85;90.57
14154;DHT22;7157;53.144;7.570;2022-10-17T04:47:49;13.85;91.08
14154;DHT22;7157;53.144;7.570;2022-10-17T04:57:53;13.94;90.97
14154;DHT22;7157;53.144;7.570;2022-10-17T05:07:56;13.95;91.56
14154;DHT22;7157;53.144;7.570;2022-10-17T05:18:00;14.00;92.24
14154;DHT22;7157;53.144;7.570;2022-10-17T05:28:03;14.09;92.40
14154;DHT22;7157;53.144;7.570;2022-10-17T05:38:07;14.18;93.53
14154;DHT22;7157;53.144;7.570;2022-10-17T05:48:10;14.32;94.12
14154;DHT22;7157;53.144;7.570;2022-10-17T05:58:14;14.45;94.46
14154;DHT22;7157;53.144;7.570;2022-10-17T06:08:22;14.58;94.17
14154;DHT22;7157;53.144;7.570;2022-10-17T06:18:26;14.73;94.02
14154;DHT22;7157;53.144;7.570;2022-10-17T06:28:30;14.91;93.28
14154;DHT22;7157;53.144;7.570;2022-10-17T06:38:34;14.89;93.71
14154;DHT22;7157;53.144;7.570;2022-10-17T06:48:37;14.95;93.98
14154;DHT22;7157;53.144;7.570;2022-10-17T06:58:41;15.12;93.67
14154;DHT22;7157;53.144;7.570;2022-10-17T07:08:44;15.27;93.43
14154;DHT22;7157;53.144;7.570;2022-10-17T07:18:49;15.43;93.48
14154;DHT22;7157;53.144;7.570;2022-10-17T07:28:53;15.66;93.40
14154;DHT22;7157;53.144;7.570;2022-10-17T07:38:58;15.99;92.71
14154;DHT22;7157;53.144;7.570;2022-10-17T07:49:00;16.20;92.64
14154;DHT22;7157;53.144;7.570;2022-10-17T07:59:04;16.60;91.76
14154;DHT22;7157;53.144;7.570;2022-10-17T08:09:10;16.86;91.37
14154;DHT22;7157;53.144;7.570;2022-10-17T08:19:14;17.48;90.01
14154;DHT22;7157;53.144;7.570;2022-10-17T08:29:16;18.40;87.73
14154;DHT22;7157;53.144;7.570;2022-10-17T08:39:20;19.00;85.14
14154;DHT22;7157;53.144;7.570;2022-10-17T08:49:27;19.21;84.36
14154;DHT22;7157;53.144;7.570;2022-10-17T08:59:36;19.25;84.52
14154;DHT22;7157;53.144;7.570;2022-10-17T09:09:43;19.11;84.55
14154;DHT22;7157;53.144;7.570;2022-10-17T09:19:58;19.16;84.49
14154;DHT22;7157;53.144;7.570;2022-10-17T09:30:19;19.55;83.28
14154;DHT22;7157;53.144;7.570;2022-10-17T09:40:49;19.35;83.90
14154;DHT22;7157;53.144;7.570;2022-10-17T09:50:59;19.44;83.65
14154;DHT22;7157;53.144;7.570;2022-10-17T10:01:24;19.62;83.57
14154;DHT22;7157;53.144;7.570;2022-10-17T10:11:44;19.88;81.93
14154;DHT22;7157;53.144;7.570;2022-10-17T10:21:54;19.81;82.25
14154;DHT22;7157;53.144;7.570;2022-10-17T10:32:06;20.00;81.96
14154;DHT22;7157;53.144;7.570;2022-10-17T10:42:20;19.83;82.77
14154;DHT22;7157;53.144;7.570;2022-10-17T10:52:30;19.54;83.98
14154;DHT22;7157;53.144;7.570;2022-10-17T11:02:39;18.43;90.02
14154;DHT22;7157;53.144;7.570;2022-10-17T11:12:49;18.09;92.50
14154;DHT22;7157;53.144;7.570;2022-10-17T11:23:01;17.95;93.73
14154;DHT22;7157;53.144;7.570;2022-10-17T11:33:14;17.88;94.78
14154;DHT22;7157;53.144;7.570;2022-10-17T11:43:26;17.76;96.43
14154;DHT22;7157;53.144;7.570;2022-10-17T11:53:33;17.90;96.46
14154;DHT22;7157;53.144;7.570;2022-10-17T12:04:00;17.92;97.45
14154;DHT22;7157;53.144;7.570;2022-10-17T12:14:38;17.89;97.73
14154;DHT22;7157;53.144;7.570;2022-10-17T12:24:44;17.98;97.50
14154;DHT22;7157;53.144;7.570;2022-10-17T12:34:51;18.09;97.31
14154;DHT22;7157;53.144;7.570;2022-10-17T12:44:55;18.00;97.74
14154;DHT22;7157;53.144;7.570;2022-10-17T12:55:11;17.84;98.50
14154;DHT22;7157;53.144;7.570;2022-10-17T13:05:22;17.80;98.30
14154;DHT22;7157;53.144;7.570;2022-10-17T13:15:27;17.82;98.07
14154;DHT22;7157;53.144;7.570;2022-10-17T13:25:31;17.79;98.04
14154;DHT22;7157;53.144;7.570;2022-10-17T13:35:39;17.81;97.95
14154;DHT22;7157;53.144;7.570;2022-10-17T13:46:02;17.93;97.71
14154;DHT22;7157;53.144;7.570;2022-10-17T13:56:26;18.08;97.13
14154;DHT22;7157;53.144;7.570;2022-10-17T14:06:33;18.02;96.98
14154;DHT22;7157;53.144;7.570;2022-10-17T14:16:38;18.02;96.84
14154;DHT22;7157;53.144;7.570;2022-10-17T14:26:50;18.07;96.65
14154;DHT22;7157;53.144;7.570;2022-10-17T14:36:53;17.96;96.86
14154;DHT22;7157;53.144;7.570;2022-10-17T14:46:59;17.93;96.87
14154;DHT22;7157;53.144;7.570;2022-10-17T14:57:28;18.00;96.58
14154;DHT22;7157;53.144;7.570;2022-10-17T15:07:37;17.84;97.26
14154;DHT22;7157;53.144;7.570;2022-10-17T15:17:39;17.54;97.84
14154;DHT22;7157;53.144;7.570;2022-10-17T15:27:43;17.36;97.83
14154;DHT22;7157;53.144;7.570;2022-10-17T15:37:46;17.21;97.88
14154;DHT22;7157;53.144;7.570;2022-10-17T15:47:51;17.02;97.65
14154;DHT22;7157;53.144;7.570;2022-10-17T15:57:55;17.00;98.11
14154;DHT22;7157;53.144;7.570;2022-10-17T16:07:59;16.85;97.23
14154;DHT22;7157;53.144;7.570;2022-10-17T16:18:01;16.57;96.94
14154;DHT22;7157;53.144;7.570;2022-10-17T16:28:10;16.52;96.99
14154;DHT22;7157;53.144;7.570;2022-10-17T16:38:13;16.47;97.08
14154;DHT22;7157;53.144;7.570;2022-10-17T16:48:17;16.36;97.31
14154;DHT22;7157;53.144;7.570;2022-10-17T16:58:19;16.39;97.13
14154;DHT22;7157;53.144;7.570;2022-10-17T17:08:23;16.36;96.91
14154;DHT22;7157;53.144;7.570;2022-10-17T17:18:26;16.26;96.97
14154;DHT22;7157;53.144;7.570;2022-10-17T17:28:31;16.10;97.11
14154;DHT22;7157;53.144;7.570;2022-10-17T17:38:35;15.98;97.13
14154;DHT22;7157;53.144;7.570;2022-10-17T17:48:40;15.81;97.33
14154;DHT22;7157;53.144;7.570;2022-10-17T17:58:44;15.85;97.40
14154;DHT22;7157;53.144;7.570;2022-10-17T18:08:50;15.81;97.60
14154;DHT22;7157;53.144;7.570;2022-10-17T18:18:53;15.83;97.63
14154;DHT22;7157;53.144;7.570;2022-10-17T18:28:57;15.85;97.59
14154;DHT22;7157;53.144;7.570;2022-10-17T18:39:00;15.77;97.65
14154;DHT22;7157;53.144;7.570;2022-10-17T18:49:04;15.74;97.64
14154;DHT22;7157;53.144;7.570;2022-10-17T18:59:07;15.80;97.12
14154;DHT22;7157;53.144;7.570;2022-10-17T19:09:12;15.78;97.07
14154;DHT22;7157;53.144;7.570;2022-10-17T19:19:18;15.81;97.01
14154;DHT22;7157;53.144;7.570;2022-10-17T19:29:24;15.87;97.09
14154;DHT22;7157;53.144;7.570;2022-10-17T19:39:27;16.00;97.06
14154;DHT22;7157;53.144;7.570;2022-10-17T19:49:31;16.03;96.91
14154;DHT22;7157;53.144;7.570;2022-10-17T19:59:34;15.98;97.02
14154;DHT22;7157;53.144;7.570;2022-10-17T20:09:38;15.96;96.87
14154;DHT22;7157;53.144;7.570;2022-10-17T20:19:40;15.91;97.09
14154;DHT22;7157;53.144;7.570;2022-10-17T20:29:44;15.92;97.00
14154;DHT22;7157;53.144;7.570;2022-10-17T20:39:47;15.95;97.00
14154;DHT22;7157;53.144;7.570;2022-10-17T20:50:11;15.86;97.00
14154;DHT22;7157;53.144;7.570;2022-10-17T21:00:14;15.84;97.18
14154;DHT22;7157;53.144;7.570;2022-10-17T21:10:18;15.86;97.08
14154;DHT22;7157;53.144;7.570;2022-10-17T21:20:36;15.83;97.04
14154;DHT22;7157;53.144;7.570;2022-10-17T21:30:40;15.77;97.04
14154;DHT22;7157;53.144;7.570;2022-10-17T21:40:45;15.73;97.10
14154;DHT22;7157;53.144;7.570;2022-10-17T21:50:56;15.63;97.24
14154;DHT22;7157;53.144;7.570;2022-10-17T22:01:04;15.69;97.37
14154;DHT22;7157;53.144;7.570;2022-10-17T22:11:10;15.65;97.42
14154;DHT22;7157;53.144;7.570;2022-10-17T22:21:14;15.65;97.59
14154;DHT22;7157;53.144;7.570;2022-10-17T22:31:19;15.60;97.68
14154;DHT22;7157;53.144;7.570;2022-10-17T22:41:22;15.60;97.71
14154;DHT22;7157;53.144;7.570;2022-10-17T22:51:26;15.60;97.71
14154;DHT22;7157;53.144;7.570;2022-10-17T23:01:28;15.58;97.59
14154;DHT22;7157;53.144;7.570;2022-10-17T23:11:32;15.53;97.53
14154;DHT22;7157;53.144;7.570;2022-10-17T23:21:35;15.45;97.52
14154;DHT22;7157;53.144;7.570;2022-10-17T23:31:39;15.39;97.52
14154;DHT22;7157;53.144;7.570;2022-10-17T23:41:42;15.36;97.51
14154;DHT22;7157;53.144;7.570;2022-10-17T23:51:46;15.31;97.57
